Time;durP1;ratioP1;P1;durP2;ratioP2;P2;SDS_P1;SDS_P2;PMS_P1;PMS_P2;Temp;Humidity;BMP_temperature;BMP_pressure;BME280_temperature;BME280_humidity;BME280_pressure;Samples;Min_cycle;Max_cycle;Signal;HPM_P1;HPM_P2
2023/10/14 00:01:15;;;;;;;9.40;2.13;;;;;;;19.32;43.65;99329.28;5095855;28;20180;-87
2023/10/14 00:03:45;;;;;;;5.77;1.70;;;;;;;19.33;43.39;99323.00;5095803;28;20665;-87
2023/10/14 00:06:14;;;;;;;7.90;2.83;;;;;;;19.34;43.79;99330.84;5095564;28;20229;-87
2023/10/14 00:08:48;;;;;;;5.40;2.40;;;;;;;19.34;44.20;99330.03;5077715;28;20176;-87
2023/10/14 00:11:18;;;;;;;5.20;1.80;;;;;;;19.26;44.21;99321.84;5078219;28;20233;-86
2023/10/14 00:13:49;;;;;;;5.77;2.00;;;;;;;19.18;43.99;99313.69;5095374;28;20578;-87
2023/10/14 00:18:56;;;;;;;8.50;2.30;;;;;;;19.04;44.59;99314.84;5096109;28;20692;-87
2023/10/14 00:21:23;;;;;;;9.37;2.00;;;;;;;18.97;44.92;99314.50;5077720;28;20245;-87
2023/10/14 00:23:51;;;;;;;8.23;2.50;;;;;;;18.89;45.13;99310.84;5095692;28;20294;-87
2023/10/14 00:26:17;;;;;;;6.63;1.97;;;;;;;18.78;44.89;99309.06;5095201;28;20271;-87
2023/10/14 00:28:45;;;;;;;8.53;2.23;;;;;;;18.78;44.76;99309.06;5095297;28;20177;-87
2023/10/14 00:31:15;;;;;;;4.93;2.27;;;;;;;18.75;44.82;99308.47;5095221;28;20217;-87
2023/10/14 00:33:41;;;;;;;4.90;2.13;;;;;;;18.71;45.01;99302.56;5077746;28;20617;-87
2023/10/14 00:36:16;;;;;;;4.77;1.77;;;;;;;18.65;45.50;99303.09;5077478;28;20187;-87
2023/10/14 00:38:44;;;;;;;7.03;2.27;;;;;;;18.63;45.10;99298.88;5095122;28;20671;-87
2023/10/14 00:41:12;;;;;;;8.93;2.50;;;;;;;18.55;45.70;99299.53;5095094;28;20188;-86
2023/10/14 00:43:41;;;;;;;4.93;2.70;;;;;;;18.51;45.84;99297.22;5077178;28;20188;-86
2023/10/14 00:46:15;;;;;;;4.07;2.03;;;;;;;18.47;45.74;99291.34;5077453;28;20258;-87
2023/10/14 00:48:46;;;;;;;3.87;2.00;;;;;;;18.45;45.70;99287.91;5077420;28;20176;-87
2023/10/14 00:51:19;;;;;;;14.60;2.50;;;;;;;18.36;46.20;99283.38;5095800;28;20191;-87
2023/10/14 00:54:01;;;;;;;7.60;2.37;;;;;;;18.36;46.24;99288.69;5095775;28;20243;-87
2023/10/14 00:56:31;;;;;;;11.37;2.23;;;;;;;18.31;46.49;99286.44;5095456;28;20176;-86
2023/10/14 00:58:58;;;;;;;8.57;1.90;;;;;;;18.29;46.23;99282.22;5094859;28;20236;-87
2023/10/14 01:01:28;;;;;;;4.87;1.93;;;;;;;18.31;45.87;99280.28;5076730;28;20200;-86
2023/10/14 01:04:18;;;;;;;8.90;2.33;;;;;;;18.31;45.50;99282.91;5094801;28;20245;-86
2023/10/14 01:06:59;;;;;;;7.43;2.00;;;;;;;18.30;45.48;99278.56;5094028;28;20539;-86
2023/10/14 01:09:33;;;;;;;5.70;1.97;;;;;;;18.25;45.18;99281.59;5075530;28;20184;-87
2023/10/14 01:14:52;;;;;;;4.20;2.13;;;;;;;18.16;45.66;99281.53;5087620;28;20196;-86
2023/10/14 01:17:32;;;;;;;4.80;2.30;;;;;;;18.15;45.29;99274.53;5084723;28;20204;-86
2023/10/14 01:20:26;;;;;;;5.57;2.00;;;;;;;18.16;45.69;99282.34;5094590;28;20184;-86
2023/10/14 01:23:00;;;;;;;5.67;2.43;;;;;;;18.14;45.66;99278.13;5093762;28;20253;-87
2023/10/14 01:25:30;;;;;;;6.00;2.40;;;;;;;18.07;45.93;99276.94;5094903;28;20152;-87
2023/10/14 01:28:06;;;;;;;4.97;2.40;;;;;;;17.98;46.73;99275.88;5076570;28;20556;-87
2023/10/14 01:30:37;;;;;;;7.47;2.37;;;;;;;17.95;46.97;99283.25;5079278;28;20229;-87
2023/10/14 01:33:15;;;;;;;6.30;2.50;;;;;;;17.91;47.44;99271.19;5056112;28;20196;-87
2023/10/14 01:35:45;;;;;;;6.23;2.27;;;;;;;17.87;47.94;99273.25;5073756;28;20189;-87
2023/10/14 01:38:10;;;;;;;9.13;2.20;;;;;;;17.83;47.82;99266.50;5073483;28;20192;-86
2023/10/14 01:40:55;;;;;;;4.50;2.20;;;;;;;17.81;47.84;99271.09;5074046;28;20177;-87
2023/10/14 01:43:28;;;;;;;6.90;2.53;;;;;;;17.80;47.58;99272.91;5056146;28;20185;-87
2023/10/14 01:48:30;;;;;;;11.97;3.53;;;;;;;17.76;47.62;99268.81;5073731;28;20199;-86
2023/10/14 01:50:57;;;;;;;5.47;2.80;;;;;;;17.69;47.80;99272.91;5073948;28;20184;-87
2023/10/14 01:53:31;;;;;;;5.67;2.43;;;;;;;17.66;47.82;99267.03;5055876;28;20177;-87
2023/10/14 01:55:59;;;;;;;3.60;2.07;;;;;;;17.65;47.78;99268.81;5073670;28;20153;-86
2023/10/14 01:58:29;;;;;;;6.20;2.63;;;;;;;17.68;47.50;99260.63;5055805;28;20283;-86
2023/10/14 02:01:15;;;;;;;4.67;2.00;;;;;;;17.64;47.44;99274.22;5055797;28;20195;-86
2023/10/14 02:03:51;;;;;;;6.73;2.70;;;;;;;17.53;47.57;99268.97;5073526;28;20188;-86
2023/10/14 02:06:30;;;;;;;5.00;2.83;;;;;;;17.42;47.78;99256.50;5055806;28;20247;-87
2023/10/14 02:09:04;;;;;;;8.20;3.13;;;;;;;17.38;48.17;99262.16;5055767;28;20262;-86
2023/10/14 02:11:34;;;;;;;6.70;2.80;;;;;;;17.26;48.41;99258.66;5055481;28;20216;-86
2023/10/14 02:14:10;;;;;;;8.03;3.27;;;;;;;17.27;48.34;99254.22;5055929;28;20207;-86
2023/10/14 02:16:44;;;;;;;7.23;2.87;;;;;;;17.32;48.09;99250.22;5073173;28;20318;-87
2023/10/14 02:19:21;;;;;;;11.80;3.10;;;;;;;17.30;48.60;99260.09;5055634;28;20169;-86
2023/10/14 02:21:57;;;;;;;7.40;3.03;;;;;;;17.22;48.91;99257.19;5055166;28;20173;-86
2023/10/14 02:24:25;;;;;;;6.07;2.27;;;;;;;17.23;49.02;99264.19;5055553;28;20190;-86
2023/10/14 02:26:50;;;;;;;6.93;2.70;;;;;;;17.21;48.79;99263.47;5055549;28;20181;-86
2023/10/14 02:29:16;;;;;;;7.63;2.40;;;;;;;17.09;49.04;99267.06;5073271;28;20678;-86
2023/10/14 02:31:44;;;;;;;6.57;2.83;;;;;;;17.00;49.16;99258.03;5055204;28;20546;-86
2023/10/14 02:34:14;;;;;;;6.13;2.87;;;;;;;16.98;49.40;99252.00;5055706;28;20236;-86
2023/10/14 02:36:51;;;;;;;13.17;2.93;;;;;;;16.97;49.36;99254.78;5072956;28;20549;-86
2023/10/14 02:39:25;;;;;;;5.37;2.53;;;;;;;16.93;49.59;99254.16;5073046;28;20176;-86
2023/10/14 02:42:00;;;;;;;6.27;3.00;;;;;;;16.88;49.84;99258.09;5073311;28;20217;-86
2023/10/14 02:44:43;;;;;;;9.23;2.47;;;;;;;16.80;50.04;99250.75;5055056;28;20173;-86
2023/10/14 02:47:11;;;;;;;7.93;2.77;;;;;;;16.81;49.81;99256.91;5073025;28;20161;-87
2023/10/14 02:49:37;;;;;;;10.33;3.23;;;;;;;16.79;49.76;99256.19;5055959;28;20195;-86
2023/10/14 02:52:29;;;;;;;11.50;2.77;;;;;;;16.71;49.90;99255.91;5055217;28;20321;-87
2023/10/14 02:54:55;;;;;;;6.33;2.40;;;;;;;16.68;50.13;99257.00;5064107;28;20273;-86
2023/10/14 02:57:28;;;;;;;4.80;2.40;;;;;;;16.68;49.73;99256.16;5059968;28;20307;-87
2023/10/14 02:59:58;;;;;;;5.83;2.87;;;;;;;16.70;49.98;99255.06;5072833;28;20611;-86
2023/10/14 03:02:48;;;;;;;5.53;2.67;;;;;;;16.70;50.18;99254.22;5073000;28;20188;-86
2023/10/14 03:05:32;;;;;;;9.40;2.83;;;;;;;16.70;50.47;99254.22;5073080;28;20293;-86
2023/10/14 03:08:06;;;;;;;12.47;3.13;;;;;;;16.73;50.02;99261.94;5072485;28;20693;-87
2023/10/14 03:10:35;;;;;;;6.90;3.23;;;;;;;16.63;50.16;99274.19;5072756;28;20158;-86
2023/10/14 03:13:02;;;;;;;7.10;3.00;;;;;;;16.53;50.82;99264.25;5054983;28;20234;-86
2023/10/14 03:15:31;;;;;;;9.73;3.07;;;;;;;16.52;50.22;99262.59;5072452;28;20661;-86
2023/10/14 03:18:03;;;;;;;15.40;3.17;;;;;;;16.57;49.78;99265.75;5072729;28;20204;-86
2023/10/14 03:20:34;;;;;;;6.40;2.90;;;;;;;16.54;49.70;99263.31;5072693;28;20173;-86
2023/10/14 03:23:19;;;;;;;6.23;2.77;;;;;;;16.52;49.91;99264.34;5072524;28;20606;-86
2023/10/14 03:25:51;;;;;;;4.07;2.17;;;;;;;16.45;49.87;99266.63;5072289;28;20290;-86
2023/10/14 03:28:27;;;;;;;8.50;2.97;;;;;;;16.40;50.49;99260.81;5072812;28;20532;-86
2023/10/14 03:30:56;;;;;;;6.23;2.83;;;;;;;16.40;50.84;99263.47;5068363;28;20232;-86
2023/10/14 03:33:27;;;;;;;6.87;2.67;;;;;;;16.39;50.53;99266.22;5094029;28;20252;-86
2023/10/14 03:35:57;;;;;;;6.30;2.77;;;;;;;16.34;51.32;99263.94;5078628;28;20174;-86
2023/10/14 03:38:26;;;;;;;5.30;2.13;;;;;;;16.30;51.16;99267.75;5096575;28;20199;-86
2023/10/14 03:41:03;;;;;;;10.70;2.63;;;;;;;16.31;51.31;99264.16;5096324;28;20175;-87
2023/10/14 03:43:48;;;;;;;8.23;2.70;;;;;;;16.33;51.38;99266.69;5096643;28;20157;-86
2023/10/14 03:46:15;;;;;;;5.47;3.20;;;;;;;16.34;51.68;99274.50;5096089;28;20209;-87
2023/10/14 03:48:48;;;;;;;7.40;3.33;;;;;;;16.37;51.48;99268.16;5078621;28;20191;-86
2023/10/14 03:51:24;;;;;;;7.47;2.80;;;;;;;16.38;51.57;99270.66;5095521;28;20183;-86
2023/10/14 03:53:54;;;;;;;8.10;3.07;;;;;;;16.31;51.85;99265.94;5078342;28;20206;-86
2023/10/14 03:56:27;;;;;;;9.33;2.80;;;;;;;16.28;51.76;99261.72;5095924;28;20187;-86
2023/10/14 03:58:58;;;;;;;6.43;2.50;;;;;;;16.28;52.06;99264.38;5096011;28;20198;-86
2023/10/14 04:01:28;;;;;;;7.43;2.93;;;;;;;16.29;51.65;99265.22;5077833;28;20658;-86
2023/10/14 04:03:56;;;;;;;5.87;2.80;;;;;;;16.29;51.20;99260.78;5095965;28;20170;-86
2023/10/14 04:06:21;;;;;;;9.57;2.83;;;;;;;16.29;51.00;99260.78;5096003;28;20171;-86
2023/10/14 04:08:49;;;;;;;8.60;3.13;;;;;;;16.27;51.37;99262.69;5095827;28;20180;-87
2023/10/14 04:11:35;;;;;;;6.90;3.30;;;;;;;16.31;51.21;99258.88;5095747;28;20175;-86
2023/10/14 04:14:02;;;;;;;8.03;3.00;;;;;;;16.23;51.61;99263.88;5095765;28;20247;-86
2023/10/14 04:16:47;;;;;;;5.60;2.97;;;;;;;16.21;51.74;99264.94;5095487;28;20175;-87
2023/10/14 04:19:37;;;;;;;5.53;2.80;;;;;;;16.20;51.47;99258.81;5078096;28;20171;-86
2023/10/14 04:22:26;;;;;;;4.90;2.30;;;;;;;16.14;51.43;99261.88;5095536;28;20596;-86
2023/10/14 04:25:18;;;;;;;11.00;2.57;;;;;;;16.11;51.10;99261.28;5077756;28;20171;-87
2023/10/14 04:30:38;;;;;;;8.73;2.83;;;;;;;16.07;51.01;99263.31;5095203;28;20232;-86
2023/10/14 04:33:16;;;;;;;9.40;2.50;;;;;;;16.04;51.56;99263.53;5095573;28;20174;-87
2023/10/14 04:36:20;;;;;;;5.73;2.40;;;;;;;15.99;51.70;99270.94;5077547;28;20256;-87
2023/10/14 04:38:45;;;;;;;5.40;2.70;;;;;;;15.96;52.44;99268.53;5094417;28;20217;-87
2023/10/14 04:41:14;;;;;;;9.30;2.83;;;;;;;15.93;52.54;99266.13;5077390;28;20190;-87
2023/10/14 04:46:16;;;;;;;3.97;2.30;;;;;;;16.02;53.08;99265.44;5094811;28;20255;-86
2023/10/14 04:48:58;;;;;;;14.23;3.27;;;;;;;16.04;53.45;99273.28;5077120;28;20699;-86
2023/10/14 04:51:34;;;;;;;7.83;3.67;;;;;;;16.06;52.94;99277.50;5094892;28;20178;-87
2023/10/14 04:54:09;;;;;;;6.67;3.07;;;;;;;16.06;52.96;99274.00;5074986;28;20173;-86
2023/10/14 04:56:36;;;;;;;6.97;2.80;;;;;;;16.06;52.61;99280.16;5074700;28;20605;-86
2023/10/14 04:59:06;;;;;;;5.60;3.00;;;;;;;16.09;52.63;99285.19;5056860;28;20303;-86
2023/10/14 05:01:33;;;;;;;8.53;3.57;;;;;;;16.19;52.51;99282.72;5078258;28;20174;-86
2023/10/14 05:04:02;;;;;;;7.03;3.23;;;;;;;16.26;52.19;99279.53;5094741;28;20198;-86
2023/10/14 05:06:29;;;;;;;7.87;3.37;;;;;;;16.33;51.94;99282.53;5077065;28;20178;-87
2023/10/14 05:08:56;;;;;;;5.93;2.80;;;;;;;16.34;52.03;99281.59;5094651;28;20211;-86
2023/10/14 05:11:25;;;;;;;5.97;2.73;;;;;;;16.34;52.00;99274.50;5093363;28;20191;-86
2023/10/14 05:14:07;;;;;;;6.17;2.70;;;;;;;16.33;52.70;99286.03;5060224;28;20611;-87
2023/10/14 05:16:53;;;;;;;10.90;3.50;;;;;;;16.34;53.16;99287.75;5077040;28;20267;-87
2023/10/14 05:22:05;;;;;;;5.40;3.00;;;;;;;17.18;52.84;99282.25;5095026;28;20182;-86
2023/10/14 05:24:31;;;;;;;8.77;2.97;;;;;;;17.63;50.27;99281.34;5094608;28;20178;-87
2023/10/14 05:27:01;;;;;;;4.90;2.30;;;;;;;17.86;49.00;99286.63;5094373;28;20187;-86
2023/10/14 05:29:30;;;;;;;5.80;2.70;;;;;;;18.30;48.02;99278.56;5075994;28;20190;-86
2023/10/14 05:32:16;;;;;;;7.93;2.87;;;;;;;18.75;46.51;99277.47;5094434;28;20224;-86
2023/10/14 05:34:45;;;;;;;9.60;2.77;;;;;;;18.99;45.62;99278.06;5073961;28;20176;-86
2023/10/14 05:37:12;;;;;;;7.27;2.50;;;;;;;19.27;45.61;99286.31;5056185;28;20199;-86
2023/10/14 05:39:41;;;;;;;6.00;2.70;;;;;;;19.82;44.08;99277.06;5078386;28;20191;-86
2023/10/14 05:42:16;;;;;;;7.10;2.57;;;;;;;20.59;43.08;99278.94;5076167;28;20199;-87
2023/10/14 05:44:57;;;;;;;12.27;3.63;;;;;;;21.40;40.77;99275.75;5092277;28;20172;-87
2023/10/14 05:47:27;;;;;;;8.63;2.30;;;;;;;21.97;39.65;99279.16;5092008;28;20188;-87
2023/10/14 05:49:53;;;;;;;10.07;2.33;;;;;;;22.22;39.54;99281.09;5086944;28;20254;-86
2023/10/14 05:52:23;;;;;;;6.60;2.37;;;;;;;22.34;39.24;99271.06;5092318;28;20692;-87
2023/10/14 05:54:50;;;;;;;6.00;2.53;;;;;;;22.44;38.86;99270.00;5074187;28;20188;-87
2023/10/14 05:57:17;;;;;;;4.77;2.10;;;;;;;22.47;38.96;99272.38;5091791;28;20564;-87
2023/10/14 05:59:44;;;;;;;7.93;2.77;;;;;;;22.57;38.71;99275.81;5076007;28;20183;-87
2023/10/14 06:02:12;;;;;;;6.93;2.87;;;;;;;22.92;38.03;99269.63;5092624;28;20563;-87
2023/10/14 06:04:42;;;;;;;7.73;2.90;;;;;;;23.35;37.53;99266.06;5067932;28;20199;-87
2023/10/14 06:07:11;;;;;;;5.40;2.70;;;;;;;23.73;37.33;99271.00;5063544;28;20210;-87
2023/10/14 06:09:37;;;;;;;7.23;2.77;;;;;;;24.83;36.04;99263.59;5059812;28;20184;-86
2023/10/14 06:12:12;;;;;;;9.17;2.43;;;;;;;25.69;34.69;99271.84;5060561;28;20646;-86
2023/10/14 06:14:44;;;;;;;5.67;2.90;;;;;;;25.83;34.94;99268.44;5080945;28;20195;-86
2023/10/14 06:17:11;;;;;;;5.67;2.57;;;;;;;25.81;35.23;99270.47;5080180;28;20208;-86
2023/10/14 06:19:37;;;;;;;7.67;2.40;;;;;;;26.16;33.99;99278.06;5066339;28;20634;-86
2023/10/14 06:22:02;;;;;;;7.80;2.63;;;;;;;27.28;33.46;99259.38;5066735;28;20269;-86
2023/10/14 06:24:29;;;;;;;12.60;3.33;;;;;;;28.72;30.67;99259.63;5064496;28;20181;-86
2023/10/14 06:27:07;;;;;;;8.53;3.50;;;;;;;30.11;29.84;99260.41;5064940;28;20189;-86
2023/10/14 06:29:33;;;;;;;5.27;2.97;;;;;;;31.47;27.99;99255.44;5063136;28;20177;-86
2023/10/14 06:32:01;;;;;;;5.57;2.60;;;;;;;32.60;26.38;99255.59;5077594;28;20203;-86
2023/10/14 06:34:27;;;;;;;5.70;2.38;;;;;;;33.45;25.12;99258.69;5083939;28;20214;-86
2023/10/14 06:36:53;;;;;;;8.50;2.38;;;;;;;33.84;24.07;99252.84;5076965;28;20185;-86
2023/10/14 06:39:26;;;;;;;8.55;2.33;;;;;;;34.07;23.39;99255.75;5076399;28;20183;-86
2023/10/14 06:41:55;;;;;;;11.07;2.60;;;;;;;33.90;23.72;99251.97;5082469;28;20615;-86
2023/10/14 06:44:27;;;;;;;8.00;2.10;;;;;;;33.69;23.36;99255.13;5077347;28;20646;-86
2023/10/14 06:46:56;;;;;;;7.72;2.05;;;;;;;33.45;23.97;99258.69;5061418;28;20602;-87
2023/10/14 06:49:23;;;;;;;4.78;2.00;;;;;;;33.54;23.16;99260.06;5084135;28;20259;-86
2023/10/14 06:51:51;;;;;;;5.47;2.40;;;;;;;33.64;23.52;99252.25;5075126;28;20173;-88
2023/10/14 06:54:25;;;;;;;3.92;1.85;;;;;;;33.59;23.77;99244.78;5075175;28;20184;-87
2023/10/14 06:56:53;;;;;;;5.40;1.85;;;;;;;33.53;24.46;99250.25;5075512;28;20168;-88
2023/10/14 06:59:19;;;;;;;4.82;2.05;;;;;;;33.53;24.19;99244.81;5093718;28;20173;-87
2023/10/14 07:01:46;;;;;;;4.15;2.10;;;;;;;33.29;24.29;99247.34;5093802;28;20172;-88
2023/10/14 07:04:12;;;;;;;4.80;2.28;;;;;;;32.90;23.93;99241.41;5075049;28;20184;-87
2023/10/14 07:06:39;;;;;;;4.57;2.25;;;;;;;32.39;25.01;99244.25;5076325;28;20241;-88
2023/10/14 07:09:17;;;;;;;9.50;2.33;;;;;;;32.16;26.04;99242.91;5096624;28;20169;-87
2023/10/14 07:11:45;;;;;;;4.18;1.60;;;;;;;32.16;26.37;99242.91;5097048;28;20626;-88
2023/10/14 07:14:11;;;;;;;5.35;2.20;;;;;;;32.15;25.24;99230.38;5096805;28;20255;-88
2023/10/14 07:16:38;;;;;;;5.07;2.25;;;;;;;31.89;25.64;99235.88;5079005;28;20204;-88
2023/10/14 07:19:03;;;;;;;5.22;2.65;;;;;;;31.78;26.30;99238.44;5096819;28;20257;-87
2023/10/14 07:21:31;;;;;;;7.50;2.25;;;;;;;31.64;26.13;99237.66;5097229;28;20172;-88
2023/10/14 07:24:05;;;;;;;5.75;2.38;;;;;;;31.47;26.21;99236.47;5081060;28;20189;-89
2023/10/14 07:26:39;;;;;;;5.38;2.58;;;;;;;31.26;27.20;99234.81;5076275;28;20256;-88
2023/10/14 07:29:06;;;;;;;7.30;2.72;;;;;;;31.17;26.62;99229.78;5094337;28;20582;-88
2023/10/14 07:31:36;;;;;;;10.63;1.98;;;;;;;30.82;27.41;99229.13;5096420;28;20275;-88
2023/10/14 07:34:08;;;;;;;4.75;1.83;;;;;;;30.59;27.57;99237.66;5096575;28;20180;-88
2023/10/14 07:36:35;;;;;;;6.38;2.58;;;;;;;30.40;28.13;99227.63;5079144;28;20191;-88
2023/10/14 07:39:52;;;;;;;7.55;2.45;;;;;;;30.27;29.00;99243.78;5096879;28;20252;-87
2023/10/14 07:41:52;;;;;;;11.55;2.60;;;;;;;30.06;28.71;99239.38;5085226;28;20195;-88
2023/10/14 07:44:19;;;;;;;5.55;2.30;;;;;;;29.94;28.90;99237.44;5096611;28;20165;-88
2023/10/14 07:46:54;;;;;;;4.53;2.40;;;;;;;29.77;28.60;99242.31;5096112;28;20743;-88
2023/10/14 07:49:21;;;;;;;7.00;2.00;;;;;;;29.59;28.87;99242.84;5078938;28;20648;-88
2023/10/14 07:51:46;;;;;;;8.50;2.13;;;;;;;29.44;29.44;99233.22;5096183;28;20169;-89
2023/10/14 07:54:13;;;;;;;11.38;2.50;;;;;;;29.28;29.66;99233.53;5078581;28;20187;-88
2023/10/14 07:56:43;;;;;;;8.75;2.53;;;;;;;29.12;30.04;99234.63;5096129;28;20617;-88
2023/10/14 07:59:10;;;;;;;8.02;2.97;;;;;;;29.04;30.14;99237.47;5095855;28;20260;-88
2023/10/14 08:01:38;;;;;;;12.38;2.40;;;;;;;28.74;31.06;99228.72;5090237;28;20187;-88
2023/10/14 08:04:08;;;;;;;4.93;2.00;;;;;;;28.77;31.27;99222.09;5095946;28;20175;-88
2023/10/14 08:06:34;;;;;;;6.30;2.30;;;;;;;28.73;31.34;99223.50;5095871;28;20184;-89
2023/10/14 08:09:02;;;;;;;9.55;2.50;;;;;;;28.64;30.97;99220.94;5095841;28;20628;-88
2023/10/14 08:11:36;;;;;;;9.70;2.63;;;;;;;28.56;31.70;99221.03;5095702;28;20175;-88
2023/10/14 08:14:06;;;;;;;10.40;2.42;;;;;;;28.65;31.70;99219.09;5077548;28;20191;-88
2023/10/14 08:16:31;;;;;;;7.40;1.83;;;;;;;28.67;31.92;99221.59;5095504;28;20185;-89
2023/10/14 08:18:58;;;;;;;6.47;2.17;;;;;;;28.82;31.76;99217.81;5077933;28;20197;-88
2023/10/14 08:21:24;;;;;;;6.72;2.72;;;;;;;28.87;30.85;99218.03;5095519;28;20614;-88
2023/10/14 08:23:50;;;;;;;4.15;2.05;;;;;;;28.78;30.99;99221.91;5083280;28;20221;-88
2023/10/14 08:26:18;;;;;;;15.63;4.55;;;;;;;28.82;31.47;99219.66;5093595;28;20572;-88
2023/10/14 08:28:45;;;;;;;6.00;2.20;;;;;;;28.99;30.81;99221.88;5095457;28;20161;-88
2023/10/14 08:31:11;;;;;;;10.32;2.92;;;;;;;28.98;31.69;99219.38;5095180;28;20224;-89
2023/10/14 08:33:38;;;;;;;5.28;2.35;;;;;;;28.98;31.71;99213.97;5095349;28;20172;-89
2023/10/14 08:36:03;;;;;;;17.42;3.53;;;;;;;29.17;31.18;99215.97;5095003;28;20176;-89
2023/10/14 08:38:30;;;;;;;5.57;2.30;;;;;;;29.13;30.48;99202.06;5095720;28;20254;-88
2023/10/14 08:41:03;;;;;;;10.00;3.08;;;;;;;29.16;30.85;99207.06;5095423;28;20172;-88
2023/10/14 08:43:30;;;;;;;9.05;2.60;;;;;;;29.11;29.77;99200.56;5093399;28;20184;-87
2023/10/14 08:45:59;;;;;;;9.88;2.83;;;;;;;29.09;30.22;99194.53;5095040;28;20584;-87
2023/10/14 08:48:29;;;;;;;9.70;2.40;;;;;;;29.20;30.52;99202.06;5087039;28;20258;-88
2023/10/14 08:50:56;;;;;;;11.13;2.80;;;;;;;29.45;30.43;99197.91;5095331;28;20180;-88
2023/10/14 08:53:27;;;;;;;5.15;2.08;;;;;;;29.71;30.40;99195.34;5086173;28;20188;-89
2023/10/14 08:55:54;;;;;;;8.00;2.47;;;;;;;29.84;29.42;99194.59;5074728;28;20169;-89
2023/10/14 08:58:22;;;;;;;9.13;2.72;;;;;;;30.01;29.33;99184.22;5074644;28;20266;-89
2023/10/14 09:00:52;;;;;;;8.13;3.17;;;;;;;30.03;29.36;99180.28;5085620;28;20210;-88
2023/10/14 09:03:19;;;;;;;6.57;2.20;;;;;;;30.12;28.87;99183.66;5095270;28;20173;-87
2023/10/14 09:05:45;;;;;;;7.35;3.05;;;;;;;30.13;28.60;99178.06;5094502;28;20230;-88
2023/10/14 09:08:15;;;;;;;6.30;2.90;;;;;;;30.16;29.12;99177.63;5094382;28;20176;-89
2023/10/14 09:10:43;;;;;;;8.65;2.90;;;;;;;30.03;29.38;99176.78;5094621;28;20678;-88
2023/10/14 09:13:19;;;;;;;8.88;2.75;;;;;;;30.19;29.84;99166.41;5094371;28;20636;-89
2023/10/14 09:15:46;;;;;;;5.10;2.30;;;;;;;30.48;28.96;99159.81;5086701;28;20181;-89
2023/10/14 09:18:20;;;;;;;9.05;2.30;;;;;;;30.63;28.03;99159.63;5090391;28;20201;-89
2023/10/14 09:20:55;;;;;;;7.00;2.45;;;;;;;30.76;28.41;99157.75;5092859;28;20254;-90
2023/10/14 09:23:32;;;;;;;6.28;2.80;;;;;;;30.81;28.39;99154.41;5094196;28;20188;-89
2023/10/14 09:26:01;;;;;;;7.97;2.17;;;;;;;30.90;28.81;99147.72;5077387;28;20193;-89
2023/10/14 09:28:28;;;;;;;4.72;2.35;;;;;;;31.05;28.45;99145.66;5094411;28;20172;-89
2023/10/14 09:30:57;;;;;;;7.05;2.83;;;;;;;31.06;27.56;99147.31;5075373;28;20227;-89
2023/10/14 09:33:31;;;;;;;6.60;2.80;;;;;;;31.10;28.07;99140.44;5076130;28;20199;-89
2023/10/14 09:36:18;;;;;;;8.30;2.50;;;;;;;30.96;27.18;99131.50;5094320;28;20152;-91
2023/10/14 09:38:54;;;;;;;4.95;1.95;;;;;;;31.16;27.78;99136.06;5094447;28;20177;-90
2023/10/14 09:41:21;;;;;;;8.75;2.63;;;;;;;31.44;27.56;99128.47;5094446;28;20163;-90
2023/10/14 09:43:53;;;;;;;6.70;2.20;;;;;;;31.55;27.52;99120.50;5093153;28;20187;-89
2023/10/14 09:46:20;;;;;;;5.25;2.13;;;;;;;31.46;26.00;99132.66;5094281;28;20152;-89
2023/10/14 09:48:47;;;;;;;5.07;2.10;;;;;;;31.32;26.99;99114.75;5093935;28;20168;-89
2023/10/14 09:51:16;;;;;;;5.50;2.38;;;;;;;31.49;26.51;99110.56;5093910;28;20176;-89
2023/10/14 09:53:44;;;;;;;8.85;2.20;;;;;;;31.83;26.30;99106.63;5093932;28;20172;-88
2023/10/14 09:56:12;;;;;;;6.38;2.35;;;;;;;31.89;26.69;99100.31;5093677;28;20177;-89
2023/10/14 09:58:42;;;;;;;4.97;2.42;;;;;;;31.62;26.01;99096.09;5093527;28;20203;-89
2023/10/14 10:01:19;;;;;;;8.77;1.90;;;;;;;31.77;26.74;99091.22;5094283;28;20176;-89
2023/10/14 10:04:00;;;;;;;4.47;2.05;;;;;;;31.40;26.32;99083.88;5093558;28;20176;-89
2023/10/14 10:06:48;;;;;;;8.15;1.92;;;;;;;31.60;26.69;99079.22;5093555;28;20159;-88
2023/10/14 10:09:34;;;;;;;6.43;2.45;;;;;;;31.80;26.48;99076.41;5087695;28;20251;-89
2023/10/14 10:12:01;;;;;;;10.82;2.05;;;;;;;31.89;25.52;99061.53;5077393;28;20173;-89
2023/10/14 10:14:28;;;;;;;5.95;1.63;;;;;;;31.93;25.90;99058.16;5085295;28;20259;-89
2023/10/14 10:16:57;;;;;;;5.97;2.53;;;;;;;32.05;25.83;99058.34;5073847;28;20192;-89
2023/10/14 10:19:23;;;;;;;7.47;2.53;;;;;;;32.27;26.02;99056.91;5084161;28;20192;-89
2023/10/14 10:22:22;;;;;;;7.75;2.35;;;;;;;32.26;25.28;99046.28;5089686;28;20689;-90
2023/10/14 10:24:49;;;;;;;10.13;2.75;;;;;;;32.20;26.06;99051.53;5047250;28;20677;-89
2023/10/14 10:27:16;;;;;;;5.40;1.95;;;;;;;32.30;24.68;99036.63;5092524;28;20237;-89
2023/10/14 10:29:51;;;;;;;6.30;2.95;;;;;;;32.33;25.57;99038.91;5092218;28;20589;-89
2023/10/14 10:32:30;;;;;;;7.25;2.35;;;;;;;32.72;25.44;99038.56;5087148;28;20713;-88
2023/10/14 10:35:13;;;;;;;6.07;2.33;;;;;;;32.87;24.43;99025.44;5086674;28;20251;-90
2023/10/14 10:37:53;;;;;;;7.45;1.90;;;;;;;32.90;24.72;99027.69;5093291;28;20196;-89
2023/10/14 10:40:27;;;;;;;5.82;2.08;;;;;;;33.16;24.06;99021.16;5092797;28;20199;-88
2023/10/14 10:42:58;;;;;;;18.02;5.95;;;;;;;32.94;23.87;99018.03;5098535;28;20168;-88
2023/10/14 10:45:32;;;;;;;20.67;6.78;;;;;;;33.03;23.59;99003.09;5096839;28;20176;-89
2023/10/14 10:48:06;;;;;;;9.40;1.98;;;;;;;32.99;23.94;98999.19;5100368;28;20164;-90
2023/10/14 10:50:42;;;;;;;5.97;1.67;;;;;;;33.12;23.08;98998.22;5082256;28;20172;-89
2023/10/14 10:53:20;;;;;;;4.45;1.40;;;;;;;33.13;24.18;98995.25;5081792;28;20552;-89
2023/10/14 10:55:48;;;;;;;5.75;2.05;;;;;;;33.00;23.93;98986.41;5092665;28;20192;-89
2023/10/14 10:58:15;;;;;;;3.28;1.35;;;;;;;33.10;24.68;98990.28;5089641;28;20200;-88
2023/10/14 11:00:46;;;;;;;4.45;1.63;;;;;;;32.93;24.10;98981.09;5086587;28;20191;-89
2023/10/14 11:03:15;;;;;;;2.40;1.30;;;;;;;33.03;23.41;98975.94;5084239;28;20207;-89
2023/10/14 11:05:43;;;;;;;10.43;1.70;;;;;;;33.16;23.57;98973.09;5074110;28;20272;-89
2023/10/14 11:08:09;;;;;;;9.43;2.80;;;;;;;33.14;23.10;98969.78;5070439;28;20185;-89
2023/10/14 11:10:39;;;;;;;6.43;1.88;;;;;;;33.24;22.93;98955.63;5070565;28;20642;-90
2023/10/14 11:13:07;;;;;;;3.92;1.45;;;;;;;33.42;23.07;98956.41;5071199;28;20184;-88
2023/10/14 11:15:34;;;;;;;4.20;1.85;;;;;;;33.59;22.98;98947.63;5086902;28;20181;-89
2023/10/14 11:18:00;;;;;;;4.30;1.52;;;;;;;33.22;22.03;98945.00;5069161;28;20208;-89
2023/10/14 11:20:31;;;;;;;3.70;1.80;;;;;;;33.03;23.67;98951.50;5074566;28;20652;-88
2023/10/14 11:22:57;;;;;;;4.45;1.85;;;;;;;33.39;23.23;98946.00;5088474;28;20184;-89
2023/10/14 11:25:23;;;;;;;5.07;1.80;;;;;;;33.55;23.21;98943.66;5084103;28;20185;-89
2023/10/14 11:27:49;;;;;;;4.03;1.90;;;;;;;33.45;23.03;98937.97;5088427;28;20172;-88
2023/10/14 11:30:18;;;;;;;5.50;2.25;;;;;;;33.59;23.42;98934.88;5085731;28;20203;-90
2023/10/14 11:32:48;;;;;;;4.95;1.92;;;;;;;33.77;22.94;98925.78;5066934;28;20216;-89
2023/10/14 11:35:19;;;;;;;6.65;1.45;;;;;;;33.72;22.95;98929.22;5070020;28;20183;-88
2023/10/14 11:37:55;;;;;;;4.97;1.50;;;;;;;33.79;22.13;98919.06;5099260;28;20195;-90
2023/10/14 11:40:31;;;;;;;7.10;1.48;;;;;;;34.02;22.69;98918.22;5081705;28;20260;-91
2023/10/14 11:42:58;;;;;;;8.40;1.77;;;;;;;34.13;22.51;98909.28;5099402;28;20184;-89
2023/10/14 11:45:25;;;;;;;7.05;1.48;;;;;;;34.45;21.99;98901.56;5099358;28;20226;-89
2023/10/14 11:47:55;;;;;;;4.38;1.95;;;;;;;34.54;21.73;98892.75;5081585;28;20173;-88
2023/10/14 11:50:26;;;;;;;5.07;1.85;;;;;;;34.38;21.79;98900.88;5099137;28;20184;-89
2023/10/14 11:52:57;;;;;;;6.10;2.13;;;;;;;33.86;22.41;98899.88;5098201;28;20599;-89
2023/10/14 11:55:27;;;;;;;6.28;1.80;;;;;;;33.17;23.20;98898.69;5077764;28;20223;-89
2023/10/14 11:57:58;;;;;;;6.35;1.90;;;;;;;33.20;23.46;98887.31;5078141;28;20210;-90
2023/10/14 12:00:23;;;;;;;4.05;1.92;;;;;;;33.45;23.53;98883.63;5078504;28;20501;-89
2023/10/14 12:02:52;;;;;;;3.22;1.83;;;;;;;33.81;22.41;98880.72;5095649;28;20180;-88
2023/10/14 12:05:19;;;;;;;5.53;1.48;;;;;;;34.01;22.93;98883.94;5078133;28;20176;-89
2023/10/14 12:07:49;;;;;;;4.20;1.83;;;;;;;34.10;22.53;98870.81;5095830;28;20184;-90